Time;durP1;ratioP1;P1;durP2;ratioP2;P2;SDS_P1;SDS_P2;PMS_P1;PMS_P2;Temp;Humidity;BMP_temperature;BMP_pressure;BME280_temperature;BME280_humidity;BME280_pressure;Samples;Min_cycle;Max_cycle;Signal;HPM_P1;HPM_P2
2023/03/16 00:01:55;;;;;;;7.70;5.63;;;;;;;;;;5006225;28;20143;-64
2023/03/16 00:04:20;;;;;;;11.60;6.22;;;;;;;;;;5002936;28;20021;-64
2023/03/16 00:06:45;;;;;;;12.05;6.68;;;;;;;;;;5006941;28;20021;-64
2023/03/16 00:09:10;;;;;;;13.27;6.20;;;;;;;;;;5006979;28;20933;-64
2023/03/16 00:11:36;;;;;;;11.45;6.22;;;;;;;;;;4996825;28;20021;-64
2023/03/16 00:14:03;;;;;;;12.35;6.63;;;;;;;;;;5006754;28;20116;-64
2023/03/16 00:16:28;;;;;;;7.68;5.75;;;;;;;;;;5004583;28;20013;-64
2023/03/16 00:18:53;;;;;;;8.30;5.97;;;;;;;;;;5007610;28;20937;-64
2023/03/16 00:21:19;;;;;;;8.82;6.43;;;;;;;;;;5006154;28;20564;-64
2023/03/16 00:23:44;;;;;;;10.52;6.57;;;;;;;;;;5004993;28;20025;-64
2023/03/16 00:26:11;;;;;;;10.70;6.15;;;;;;;;;;5002169;28;20020;-64
2023/03/16 00:28:37;;;;;;;11.77;6.25;;;;;;;;;;4998928;28;20021;-64
2023/03/16 00:31:10;;;;;;;8.18;6.03;;;;;;;;;;4998690;28;20020;-64
2023/03/16 00:33:36;;;;;;;9.60;5.90;;;;;;;;;;5005229;28;20029;-64
2023/03/16 00:36:02;;;;;;;11.00;6.13;;;;;;;;;;4997358;28;20032;-64
2023/03/16 00:38:28;;;;;;;9.40;6.43;;;;;;;;;;4999632;28;20025;-64
2023/03/16 00:40:55;;;;;;;9.80;6.57;;;;;;;;;;4995929;28;20179;-64
2023/03/16 00:43:20;;;;;;;17.35;6.93;;;;;;;;;;4994580;28;20021;-64
2023/03/16 00:45:45;;;;;;;12.15;6.40;;;;;;;;;;5006992;28;20970;-64
2023/03/16 00:48:10;;;;;;;8.73;5.90;;;;;;;;;;4996644;28;20120;-64
2023/03/16 00:50:36;;;;;;;12.13;6.75;;;;;;;;;;5004205;28;20772;-64
2023/03/16 00:53:01;;;;;;;10.68;5.47;;;;;;;;;;5006260;28;20131;-64
2023/03/16 00:55:27;;;;;;;10.98;5.55;;;;;;;;;;5003874;28;20993;-64
2023/03/16 00:57:53;;;;;;;8.52;5.22;;;;;;;;;;4999330;28;20029;-64
2023/03/16 01:00:19;;;;;;;10.25;5.32;;;;;;;;;;5005124;28;20025;-64
2023/03/16 01:02:45;;;;;;;9.82;5.68;;;;;;;;;;5002182;28;20082;-64
2023/03/16 01:05:11;;;;;;;9.40;5.82;;;;;;;;;;4997713;28;20029;-64
2023/03/16 01:07:37;;;;;;;9.55;5.82;;;;;;;;;;5004377;28;20060;-64
2023/03/16 01:10:02;;;;;;;7.60;4.68;;;;;;;;;;5005672;28;20079;-64
2023/03/16 01:12:27;;;;;;;11.75;5.03;;;;;;;;;;5003628;28;20106;-64
2023/03/16 01:14:54;;;;;;;12.45;5.72;;;;;;;;;;5005358;28;20801;-64
2023/03/16 01:17:21;;;;;;;8.70;5.30;;;;;;;;;;5006226;28;20017;-64
2023/03/16 01:19:46;;;;;;;9.48;5.85;;;;;;;;;;5005081;28;20984;-64
2023/03/16 01:22:12;;;;;;;12.30;5.90;;;;;;;;;;5001388;28;20033;-64
2023/03/16 01:24:38;;;;;;;8.77;5.95;;;;;;;;;;5000230;28;20021;-64
2023/03/16 01:27:04;;;;;;;9.57;5.72;;;;;;;;;;4997674;28;20025;-64
2023/03/16 01:29:29;;;;;;;7.03;5.00;;;;;;;;;;5003384;28;20847;-64
2023/03/16 01:31:55;;;;;;;9.50;5.07;;;;;;;;;;5004967;28;20036;-64
2023/03/16 01:34:20;;;;;;;7.40;4.47;;;;;;;;;;5005041;28;20855;-64
2023/03/16 01:36:46;;;;;;;10.52;5.20;;;;;;;;;;5005127;28;20866;-64
2023/03/16 01:39:12;;;;;;;8.13;4.93;;;;;;;;;;5004678;28;20056;-64
2023/03/16 01:41:38;;;;;;;9.50;5.55;;;;;;;;;;5002939;28;20031;-64
2023/03/16 01:44:04;;;;;;;8.68;5.05;;;;;;;;;;5004495;28;20041;-64
2023/03/16 01:46:29;;;;;;;9.05;4.93;;;;;;;;;;5001397;28;20039;-64
2023/03/16 01:49:00;;;;;;;7.72;4.68;;;;;;;;;;5003048;28;20033;-64
2023/03/16 01:51:30;;;;;;;6.82;4.43;;;;;;;;;;5002824;28;20029;-64
2023/03/16 01:54:03;;;;;;;9.23;4.90;;;;;;;;;;5002219;28;20855;-64
2023/03/16 01:56:33;;;;;;;6.88;4.00;;;;;;;;;;5005066;28;20029;-64
2023/03/16 01:59:01;;;;;;;7.40;4.00;;;;;;;;;;5006194;28;20037;-64
2023/03/16 02:01:26;;;;;;;8.82;4.10;;;;;;;;;;5011584;28;20032;-64
2023/03/16 02:03:55;;;;;;;5.85;4.22;;;;;;;;;;5009088;28;20033;-64
2023/03/16 02:06:22;;;;;;;8.52;4.68;;;;;;;;;;5009663;28;20131;-64
2023/03/16 02:08:48;;;;;;;7.75;4.05;;;;;;;;;;5007182;28;20144;-64
2023/03/16 02:11:17;;;;;;;7.07;3.90;;;;;;;;;;5006119;28;20024;-64
2023/03/16 02:13:43;;;;;;;9.35;4.43;;;;;;;;;;5006277;28;20136;-64
2023/03/16 02:16:08;;;;;;;6.00;3.47;;;;;;;;;;5009815;28;20029;-64
2023/03/16 02:18:34;;;;;;;6.43;4.00;;;;;;;;;;4996130;28;20028;-63
2023/03/16 02:21:08;;;;;;;6.00;3.80;;;;;;;;;;5007783;28;20025;-63
2023/03/16 02:23:33;;;;;;;7.20;4.13;;;;;;;;;;5009465;28;20134;-64
2023/03/16 02:26:08;;;;;;;6.45;3.95;;;;;;;;;;5006858;28;20921;-64
2023/03/16 02:28:43;;;;;;;12.05;4.43;;;;;;;;;;5008942;28;20025;-64
2023/03/16 02:31:09;;;;;;;8.35;3.65;;;;;;;;;;5008384;28;20025;-64
2023/03/16 02:33:34;;;;;;;7.47;3.90;;;;;;;;;;5009966;28;20028;-64
2023/03/16 02:36:00;;;;;;;6.15;3.53;;;;;;;;;;5009368;28;20770;-64
2023/03/16 02:38:25;;;;;;;7.05;3.95;;;;;;;;;;5007389;28;20052;-64
2023/03/16 02:40:56;;;;;;;4.63;3.42;;;;;;;;;;5002371;28;20092;-64
2023/03/16 02:43:24;;;;;;;6.97;4.10;;;;;;;;;;5001328;28;20025;-64
2023/03/16 02:45:57;;;;;;;6.53;3.65;;;;;;;;;;5005360;28;20036;-64
2023/03/16 02:48:43;;;;;;;5.82;3.35;;;;;;;;;;5005390;28;20182;-64
2023/03/16 02:51:08;;;;;;;7.18;3.75;;;;;;;;;;4999754;28;20045;-64
2023/03/16 02:53:33;;;;;;;6.03;3.83;;;;;;;;;;5002496;28;20080;-64
2023/03/16 02:55:59;;;;;;;5.90;3.45;;;;;;;;;;4996738;28;20912;-64
2023/03/16 02:58:24;;;;;;;12.27;3.80;;;;;;;;;;5002545;28;20025;-63
2023/03/16 03:00:49;;;;;;;11.43;3.92;;;;;;;;;;5007665;28;20029;-63
2023/03/16 03:03:14;;;;;;;5.07;3.67;;;;;;;;;;5004687;28;20028;-64
2023/03/16 03:05:40;;;;;;;5.53;3.70;;;;;;;;;;5002630;28;20858;-64
2023/03/16 03:08:05;;;;;;;9.52;4.88;;;;;;;;;;5005317;28;20017;-64
2023/03/16 03:10:30;;;;;;;4.95;3.63;;;;;;;;;;5000330;28;20068;-64
2023/03/16 03:12:56;;;;;;;9.27;3.35;;;;;;;;;;5007635;28;20032;-64
2023/03/16 03:15:22;;;;;;;9.70;4.50;;;;;;;;;;5008104;28;20617;-64
2023/03/16 03:17:47;;;;;;;8.32;3.70;;;;;;;;;;4999815;28;20925;-64
2023/03/16 03:20:15;;;;;;;5.63;3.50;;;;;;;;;;5006158;28;20834;-64
2023/03/16 03:22:41;;;;;;;5.90;3.38;;;;;;;;;;5007032;28;20021;-64
2023/03/16 03:25:07;;;;;;;5.15;3.47;;;;;;;;;;5007284;28;20029;-64
2023/03/16 03:27:32;;;;;;;8.02;3.80;;;;;;;;;;5007310;28;20407;-64
2023/03/16 03:29:58;;;;;;;5.82;3.53;;;;;;;;;;5007973;28;20047;-64
2023/03/16 03:32:23;;;;;;;6.95;3.33;;;;;;;;;;5007630;28;20025;-64
2023/03/16 03:34:48;;;;;;;7.13;3.03;;;;;;;;;;5007833;28;20114;-64
2023/03/16 03:37:14;;;;;;;6.50;3.38;;;;;;;;;;5007340;28;20028;-64
2023/03/16 03:39:39;;;;;;;12.00;3.97;;;;;;;;;;4997799;28;20025;-64
2023/03/16 03:42:05;;;;;;;6.10;3.28;;;;;;;;;;5002483;28;20033;-64
2023/03/16 03:44:33;;;;;;;5.22;3.03;;;;;;;;;;5016869;28;20033;-64
2023/03/16 03:46:58;;;;;;;8.75;3.30;;;;;;;;;;5006976;28;20420;-64
2023/03/16 03:49:24;;;;;;;5.25;3.40;;;;;;;;;;5007243;28;20040;-64
2023/03/16 03:51:49;;;;;;;6.10;3.10;;;;;;;;;;5004755;28;20040;-64
2023/03/16 03:54:14;;;;;;;6.65;3.10;;;;;;;;;;5004999;28;21012;-64
2023/03/16 03:56:39;;;;;;;6.03;3.17;;;;;;;;;;5000307;28;20056;-64
2023/03/16 03:59:05;;;;;;;4.75;3.10;;;;;;;;;;5003004;28;20856;-64
2023/03/16 04:01:30;;;;;;;5.25;3.30;;;;;;;;;;5006454;28;20829;-64
2023/03/16 04:03:55;;;;;;;4.93;2.83;;;;;;;;;;5007652;28;20051;-64
2023/03/16 04:06:20;;;;;;;5.50;3.25;;;;;;;;;;5006941;28;20899;-64
2023/03/16 04:08:46;;;;;;;5.78;3.22;;;;;;;;;;5004553;28;20127;-63
2023/03/16 04:11:11;;;;;;;6.60;3.00;;;;;;;;;;5005105;28;20910;-64
2023/03/16 04:13:36;;;;;;;7.72;3.42;;;;;;;;;;5008203;28;20021;-64
2023/03/16 04:16:02;;;;;;;6.95;3.03;;;;;;;;;;5008528;28;20140;-64
2023/03/16 04:18:27;;;;;;;6.35;3.22;;;;;;;;;;4997998;28;20880;-64
2023/03/16 04:20:53;;;;;;;4.82;3.03;;;;;;;;;;5004189;28;20875;-64
2023/03/16 04:23:19;;;;;;;6.50;3.40;;;;;;;;;;5000777;28;20875;-64
2023/03/16 04:25:44;;;;;;;9.05;3.33;;;;;;;;;;5007726;28;20021;-64
2023/03/16 04:28:09;;;;;;;7.25;3.28;;;;;;;;;;4992713;28;20192;-64
2023/03/16 04:30:35;;;;;;;10.02;3.33;;;;;;;;;;4991832;28;20060;-63
2023/03/16 04:33:00;;;;;;;9.32;4.05;;;;;;;;;;4991584;28;20025;-63
2023/03/16 04:35:25;;;;;;;8.60;3.50;;;;;;;;;;5005002;28;20024;-64
2023/03/16 04:37:51;;;;;;;13.27;3.65;;;;;;;;;;5004952;28;20020;-64
2023/03/16 04:40:16;;;;;;;7.07;3.42;;;;;;;;;;5009211;28;20025;-64
2023/03/16 04:42:42;;;;;;;5.82;3.42;;;;;;;;;;4997997;28;20034;-63
2023/03/16 04:45:08;;;;;;;5.65;3.22;;;;;;;;;;5005216;28;20071;-63
2023/03/16 04:47:33;;;;;;;7.20;3.42;;;;;;;;;;5000706;28;20771;-63
2023/03/16 04:50:02;;;;;;;5.68;3.40;;;;;;;;;;4996638;28;20037;-63
2023/03/16 04:52:27;;;;;;;8.25;2.95;;;;;;;;;;5005392;28;20076;-63
2023/03/16 04:54:53;;;;;;;7.07;3.70;;;;;;;;;;5000275;28;20988;-63
2023/03/16 04:57:18;;;;;;;5.13;2.97;;;;;;;;;;4996674;28;20029;-64
2023/03/16 04:59:43;;;;;;;5.43;3.22;;;;;;;;;;5004884;28;20277;-63
2023/03/16 05:02:09;;;;;;;8.70;3.42;;;;;;;;;;5003252;28;20135;-63
2023/03/16 05:04:34;;;;;;;5.93;3.40;;;;;;;;;;4994517;28;20805;-64
2023/03/16 05:06:59;;;;;;;6.97;3.53;;;;;;;;;;5007673;28;21453;-64
2023/03/16 05:09:24;;;;;;;5.88;3.47;;;;;;;;;;5002977;28;20092;-63
2023/03/16 05:11:50;;;;;;;7.95;3.58;;;;;;;;;;5006499;28;20056;-63
2023/03/16 05:14:15;;;;;;;6.60;3.63;;;;;;;;;;5005039;28;20028;-63
2023/03/16 05:16:40;;;;;;;7.85;3.92;;;;;;;;;;5004849;28;20858;-63
2023/03/16 05:19:06;;;;;;;7.70;4.10;;;;;;;;;;5010693;28;20075;-63
2023/03/16 05:21:33;;;;;;;4.90;2.83;;;;;;;;;;5002254;28;20025;-63
2023/03/16 05:23:58;;;;;;;8.23;3.95;;;;;;;;;;5004402;28;20139;-63
2023/03/16 05:26:26;;;;;;;7.10;3.78;;;;;;;;;;5005196;28;20863;-63
2023/03/16 05:28:51;;;;;;;6.45;3.65;;;;;;;;;;5003104;28;20052;-63
2023/03/16 05:31:17;;;;;;;6.22;3.63;;;;;;;;;;5003080;28;20881;-63
2023/03/16 05:33:43;;;;;;;10.15;3.60;;;;;;;;;;5003063;28;20032;-63
2023/03/16 05:36:09;;;;;;;6.57;3.65;;;;;;;;;;5000213;28;21066;-63
2023/03/16 05:38:35;;;;;;;5.18;3.40;;;;;;;;;;5004495;28;20056;-63
2023/03/16 05:41:03;;;;;;;8.25;4.45;;;;;;;;;;5001256;28;20025;-64
2023/03/16 05:43:29;;;;;;;6.55;3.95;;;;;;;;;;5001872;28;20025;-64
2023/03/16 05:45:54;;;;;;;7.85;4.13;;;;;;;;;;5003844;28;20075;-64
2023/03/16 05:48:20;;;;;;;6.82;4.28;;;;;;;;;;5002871;28;20147;-64
2023/03/16 05:50:45;;;;;;;8.25;3.80;;;;;;;;;;5005073;28;20142;-64
2023/03/16 05:53:11;;;;;;;6.50;3.70;;;;;;;;;;5000187;28;20082;-64
2023/03/16 05:55:36;;;;;;;5.47;3.40;;;;;;;;;;4999727;28;20361;-64
2023/03/16 05:58:01;;;;;;;6.03;3.70;;;;;;;;;;5004522;28;20021;-64
2023/03/16 06:00:28;;;;;;;8.00;4.35;;;;;;;;;;5006961;28;20025;-63
2023/03/16 06:02:54;;;;;;;6.88;4.32;;;;;;;;;;4999380;28;20030;-64
2023/03/16 06:05:23;;;;;;;7.68;3.72;;;;;;;;;;5011762;28;20037;-64
2023/03/16 06:07:49;;;;;;;6.65;4.13;;;;;;;;;;5006004;28;21101;-64
2023/03/16 06:10:14;;;;;;;7.30;4.43;;;;;;;;;;5008159;28;20033;-64
2023/03/16 06:12:40;;;;;;;6.35;4.20;;;;;;;;;;5006460;28;20382;-64
2023/03/16 06:15:07;;;;;;;8.32;4.13;;;;;;;;;;5007185;28;20051;-64
2023/03/16 06:17:32;;;;;;;5.68;4.03;;;;;;;;;;4997596;28;20072;-64
2023/03/16 06:19:57;;;;;;;8.20;4.45;;;;;;;;;;5006257;28;20850;-64
2023/03/16 06:22:23;;;;;;;9.38;4.50;;;;;;;;;;4996795;28;20028;-64
2023/03/16 06:24:49;;;;;;;8.93;5.00;;;;;;;;;;5005355;28;20056;-64
2023/03/16 06:27:14;;;;;;;11.57;5.35;;;;;;;;;;5005921;28;20906;-64
2023/03/16 06:29:40;;;;;;;9.68;4.82;;;;;;;;;;5006550;28;20033;-64
2023/03/16 06:32:05;;;;;;;8.45;4.55;;;;;;;;;;5007284;28;20025;-64
2023/03/16 06:34:30;;;;;;;6.97;4.30;;;;;;;;;;5006552;28;20083;-63
2023/03/16 06:36:55;;;;;;;10.30;4.43;;;;;;;;;;5006941;28;20017;-63
2023/03/16 06:39:21;;;;;;;8.02;4.40;;;;;;;;;;5007510;28;20017;-63
2023/03/16 06:41:46;;;;;;;6.65;4.20;;;;;;;;;;5006583;28;20896;-64
2023/03/16 06:44:12;;;;;;;8.18;4.20;;;;;;;;;;5010687;28;20219;-63
2023/03/16 06:46:37;;;;;;;9.90;4.30;;;;;;;;;;5011684;28;20134;-63
2023/03/16 06:49:03;;;;;;;8.80;4.20;;;;;;;;;;5011779;28;20024;-63
2023/03/16 06:51:28;;;;;;;10.70;4.38;;;;;;;;;;5011499;28;20021;-64
2023/03/16 06:53:53;;;;;;;7.80;4.30;;;;;;;;;;5011364;28;20130;-64
2023/03/16 06:56:19;;;;;;;6.40;4.00;;;;;;;;;;5013400;28;20935;-63
2023/03/16 06:58:44;;;;;;;8.02;4.85;;;;;;;;;;5006221;28;20025;-63
2023/03/16 07:01:11;;;;;;;8.10;5.00;;;;;;;;;;5011025;28;20453;-63
2023/03/16 07:03:36;;;;;;;6.53;3.88;;;;;;;;;;5014383;28;20124;-64
2023/03/16 07:06:02;;;;;;;7.03;4.65;;;;;;;;;;5001663;28;20032;-64
2023/03/16 07:08:28;;;;;;;6.82;4.25;;;;;;;;;;5013120;28;20081;-64
2023/03/16 07:10:53;;;;;;;8.07;5.05;;;;;;;;;;5007842;28;20734;-64
2023/03/16 07:13:18;;;;;;;7.03;4.65;;;;;;;;;;5000275;28;20111;-63
2023/03/16 07:15:44;;;;;;;13.43;5.20;;;;;;;;;;4992380;28;20025;-65
2023/03/16 07:18:11;;;;;;;8.90;5.18;;;;;;;;;;4996085;28;21111;-65
2023/03/16 07:20:36;;;;;;;8.82;5.40;;;;;;;;;;4995088;28;20083;-63
2023/03/16 07:23:02;;;;;;;8.93;4.90;;;;;;;;;;5009364;28;20905;-65
2023/03/16 07:25:27;;;;;;;9.65;4.88;;;;;;;;;;5009507;28;20016;-65
2023/03/16 07:27:52;;;;;;;13.57;5.20;;;;;;;;;;5008382;28;20032;-65
2023/03/16 07:30:17;;;;;;;6.47;4.47;;;;;;;;;;5007750;28;20025;-64
2023/03/16 07:32:43;;;;;;;9.25;4.80;;;;;;;;;;5007251;28;20942;-64
2023/03/16 07:35:09;;;;;;;9.35;4.68;;;;;;;;;;5008088;28;20141;-64
2023/03/16 07:37:34;;;;;;;11.73;4.55;;;;;;;;;;5003974;28;20061;-64
2023/03/16 07:40:00;;;;;;;7.75;4.50;;;;;;;;;;5008503;28;20035;-63
2023/03/16 07:42:25;;;;;;;14.82;5.70;;;;;;;;;;5007425;28;20882;-63
2023/03/16 07:44:50;;;;;;;7.78;4.50;;;;;;;;;;5007651;28;20029;-63
2023/03/16 07:47:16;;;;;;;6.65;3.55;;;;;;;;;;5012656;28;20910;-64
2023/03/16 07:49:41;;;;;;;6.80;3.95;;;;;;;;;;5018339;28;20033;-64
2023/03/16 07:52:07;;;;;;;8.18;4.05;;;;;;;;;;5008830;28;20874;-64
2023/03/16 07:54:32;;;;;;;11.65;4.18;;;;;;;;;;5006736;28;20147;-64
2023/03/16 07:56:57;;;;;;;7.38;3.78;;;;;;;;;;5006606;28;20124;-64
2023/03/16 07:59:22;;;;;;;4.95;3.22;;;;;;;;;;5008499;28;20984;-63
2023/03/16 08:01:48;;;;;;;5.13;3.67;;;;;;;;;;5000536;28;20164;-64
2023/03/16 08:04:13;;;;;;;8.32;3.78;;;;;;;;;;5002663;28;20029;-64
2023/03/16 08:06:38;;;;;;;6.25;3.55;;;;;;;;;;5011130;28;20025;-63
2023/03/16 08:09:04;;;;;;;7.88;3.67;;;;;;;;;;5009249;28;20818;-63
2023/03/16 08:11:30;;;;;;;6.68;3.10;;;;;;;;;;5007323;28;20942;-63
2023/03/16 08:13:56;;;;;;;6.25;3.28;;;;;;;;;;5003075;28;20883;-64
2023/03/16 08:16:25;;;;;;;5.93;2.90;;;;;;;;;;5002161;28;20862;-63
2023/03/16 08:18:51;;;;;;;6.78;2.17;;;;;;;;;;5007179;28;20025;-65
2023/03/16 08:21:16;;;;;;;6.88;3.10;;;;;;;;;;5012499;28;20052;-63
2023/03/16 08:23:47;;;;;;;5.85;2.85;;;;;;;;;;5025212;28;20199;-63
2023/03/16 08:26:13;;;;;;;5.63;2.92;;;;;;;;;;5018328;28;20025;-63
2023/03/16 08:28:38;;;;;;;5.35;2.67;;;;;;;;;;5007368;28;20207;-64
2023/03/16 08:31:06;;;;;;;4.93;2.75;;;;;;;;;;5003736;28;20024;-64
2023/03/16 08:33:31;;;;;;;6.00;2.45;;;;;;;;;;5008727;28;20148;-64
2023/03/16 08:35:57;;;;;;;4.70;2.65;;;;;;;;;;5009231;28;20830;-64
2023/03/16 08:38:22;;;;;;;4.07;2.63;;;;;;;;;;5016927;28;20896;-64
2023/03/16 08:40:49;;;;;;;5.80;2.42;;;;;;;;;;5006783;28;20029;-63
2023/03/16 08:43:15;;;;;;;4.05;2.15;;;;;;;;;;5007931;28;20021;-64
2023/03/16 08:45:43;;;;;;;6.90;2.55;;;;;;;;;;5015885;28;20029;-63
2023/03/16 08:48:11;;;;;;;4.53;2.17;;;;;;;;;;5018985;28;20035;-64
2023/03/16 08:50:38;;;;;;;4.50;2.55;;;;;;;;;;5007492;28;20140;-64
2023/03/16 08:53:03;;;;;;;5.13;2.00;;;;;;;;;;5006698;28;20021;-64
2023/03/16 08:55:28;;;;;;;5.50;2.00;;;;;;;;;;5006312;28;20064;-64
2023/03/16 08:57:53;;;;;;;5.20;2.63;;;;;;;;;;5010226;28;20870;-64
2023/03/16 09:00:19;;;;;;;5.90;1.83;;;;;;;;;;5006046;28;20032;-64
2023/03/16 09:02:45;;;;;;;4.82;2.85;;;;;;;;;;5019342;28;20025;-64
2023/03/16 09:05:12;;;;;;;6.18;2.75;;;;;;;;;;5006540;28;20842;-64
2023/03/16 09:07:38;;;;;;;5.57;2.60;;;;;;;;;;5009811;28;20040;-64
2023/03/16 09:10:05;;;;;;;6.57;2.70;;;;;;;;;;5023397;28;20025;-64
2023/03/16 09:12:31;;;;;;;5.60;2.40;;;;;;;;;;5023718;28;20025;-63
2023/03/16 09:14:56;;;;;;;7.03;2.58;;;;;;;;;;5010195;28;20906;-64
2023/03/16 09:17:22;;;;;;;4.97;2.42;;;;;;;;;;5007217;28;20914;-64
2023/03/16 09:19:47;;;;;;;7.00;2.72;;;;;;;;;;5004538;28;20031;-64
2023/03/16 09:22:12;;;;;;;6.07;2.60;;;;;;;;;;5008490;28;20021;-64
2023/03/16 09:24:37;;;;;;;4.22;1.90;;;;;;;;;;5006838;28;20044;-63
2023/03/16 09:27:04;;;;;;;6.88;2.70;;;;;;;;;;5020726;28;20866;-63
2023/03/16 09:29:29;;;;;;;4.45;2.20;;;;;;;;;;5009961;28;20562;-64
2023/03/16 09:31:54;;;;;;;5.53;2.33;;;;;;;;;;5006472;28;20039;-63
2023/03/16 09:34:20;;;;;;;5.22;2.38;;;;;;;;;;5001815;28;20024;-63
2023/03/16 09:36:46;;;;;;;3.97;2.15;;;;;;;;;;5021314;28;20025;-64
2023/03/16 09:39:12;;;;;;;6.65;1.90;;;;;;;;;;5007500;28;20028;-64
2023/03/16 09:41:43;;;;;;;5.25;2.30;;;;;;;;;;5018430;28;20430;-63
2023/03/16 09:44:16;;;;;;;4.45;2.28;;;;;;;;;;5013191;28;20033;-63
2023/03/16 09:46:45;;;;;;;4.00;2.05;;;;;;;;;;5004263;28;20036;-63
2023/03/16 09:49:11;;;;;;;16.13;1.98;;;;;;;;;;5033350;28;20977;-64
2023/03/16 09:51:39;;;;;;;5.97;2.22;;;;;;;;;;5026846;28;20036;-64
2023/03/16 09:54:14;;;;;;;4.97;1.70;;;;;;;;;;5027048;28;20017;-63
2023/03/16 09:56:40;;;;;;;6.50;2.67;;;;;;;;;;5012529;28;20139;-64
2023/03/16 09:59:10;;;;;;;6.15;2.25;;;;;;;;;;5020919;28;20235;-64
2023/03/16 10:01:54;;;;;;;4.53;2.20;;;;;;;;;;5009194;28;20067;-64
2023/03/16 10:04:23;;;;;;;5.05;1.85;;;;;;;;;;5039087;28;20025;-64
2023/03/16 10:07:09;;;;;;;3.50;1.75;;;;;;;;;;5031081;28;20786;-64
2023/03/16 10:09:34;;;;;;;4.63;2.10;;;;;;;;;;5017119;28;20073;-64
2023/03/16 10:12:02;;;;;;;4.73;1.80;;;;;;;;;;5011301;28;20075;-64
2023/03/16 10:14:36;;;;;;;5.10;1.98;;;;;;;;;;5019961;28;20340;-63
2023/03/16 10:17:28;;;;;;;3.20;1.80;;;;;;;;;;5035215;28;20033;-64
2023/03/16 10:19:59;;;;;;;5.38;1.95;;;;;;;;;;5018708;28;20041;-64
2023/03/16 10:22:32;;;;;;;3.38;1.70;;;;;;;;;;5023123;28;20049;-64
2023/03/16 10:25:14;;;;;;;5.13;1.88;;;;;;;;;;5023742;28;20033;-64
2023/03/16 10:27:42;;;;;;;3.70;1.88;;;;;;;;;;5046104;28;20022;-64
2023/03/16 10:30:27;;;;;;;11.73;1.70;;;;;;;;;;5018732;28;20028;-64
2023/03/16 10:32:53;;;;;;;5.45;1.63;;;;;;;;;;5024778;28;20028;-64
2023/03/16 10:35:21;;;;;;;4.53;1.77;;;;;;;;;;5018601;28;20041;-63
2023/03/16 10:37:48;;;;;;;4.30;1.90;;;;;;;;;;5026659;28;20033;-64
2023/03/16 10:40:13;;;;;;;3.55;1.55;;;;;;;;;;5003869;28;20030;-63
2023/03/16 10:42:38;;;;;;;7.15;1.80;;;;;;;;;;5018937;28;21008;-64
2023/03/16 10:45:04;;;;;;;3.60;1.40;;;;;;;;;;5029459;28;20024;-64
2023/03/16 10:47:31;;;;;;;3.67;1.65;;;;;;;;;;5016463;28;20135;-64
2023/03/16 10:49:56;;;;;;;2.90;1.40;;;;;;;;;;5019158;28;20068;-64
2023/03/16 10:52:28;;;;;;;20.30;2.28;;;;;;;;;;5042260;28;20107;-64
2023/03/16 10:55:00;;;;;;;5.38;2.15;;;;;;;;;;5016294;28;20086;-64
2023/03/16 10:57:32;;;;;;;3.03;1.38;;;;;;;;;;5015685;28;20029;-64
2023/03/16 11:00:08;;;;;;;4.60;1.58;;;;;;;;;;5031208;28;20079;-64
2023/03/16 11:02:34;;;;;;;5.30;1.70;;;;;;;;;;5041198;28;20395;-64
2023/03/16 11:05:10;;;;;;;6.65;1.38;;;;;;;;;;5038799;28;20041;-64
2023/03/16 11:07:36;;;;;;;3.38;1.40;;;;;;;;;;5026741;28;20030;-63
2023/03/16 11:10:12;;;;;;;6.95;1.50;;;;;;;;;;5043848;28;20048;-63
2023/03/16 11:12:38;;;;;;;4.32;1.45;;;;;;;;;;5044123;28;20120;-63
2023/03/16 11:15:04;;;;;;;3.53;1.02;;;;;;;;;;5042391;28;20930;-63
2023/03/16 11:17:29;;;;;;;3.45;1.33;;;;;;;;;;5052128;28;20167;-63
2023/03/16 11:20:04;;;;;;;4.15;1.00;;;;;;;;;;5044684;28;20116;-64
2023/03/16 11:22:30;;;;;;;3.60;1.35;;;;;;;;;;5048522;28;20042;-64
2023/03/16 11:25:01;;;;;;;3.58;0.95;;;;;;;;;;5043409;28;20025;-65
2023/03/16 11:27:42;;;;;;;1.88;0.90;;;;;;;;;;5051707;28;20522;-64
2023/03/16 11:30:16;;;;;;;5.15;1.02;;;;;;;;;;5045952;28;20036;-64
2023/03/16 11:32:41;;;;;;;;;;;;;;;;;;5049270;28;20033;-64
2023/03/16 11:35:16;;;;;;;2.40;1.05;;;;;;;;;;5041527;28;19917;-65
2023/03/16 11:37:50;;;;;;;3.67;1.33;;;;;;;;;;5045444;28;20630;-64
2023/03/16 11:40:19;;;;;;;2.37;1.20;;;;;;;;;;5043344;28;20079;-64
2023/03/16 11:42:58;;;;;;;3.03;1.23;;;;;;;;;;5049351;28;20259;-64
2023/03/16 11:45:30;;;;;;;3.28;1.25;;;;;;;;;;5044052;28;20035;-64
2023/03/16 11:47:55;;;;;;;2.55;1.20;;;;;;;;;;5048040;28;20522;-65
2023/03/16 11:50:27;;;;;;;2.67;1.15;;;;;;;;;;5042697;28;20018;-65
2023/03/16 11:53:03;;;;;;;3.45;1.10;;;;;;;;;;5045759;28;20503;-64
2023/03/16 11:55:29;;;;;;;2.67;1.17;;;;;;;;;;5045710;28;20025;-64
2023/03/16 11:58:13;;;;;;;3.13;0.98;;;;;;;;;;5026711;28;20036;-64
2023/03/16 12:00:45;;;;;;;3.15;1.10;;;;;;;;;;5037452;28;20449;-65
2023/03/16 12:03:24;;;;;;;5.00;1.60;;;;;;;;;;5050359;28;20024;-65
2023/03/16 12:06:19;;;;;;;1.52;0.80;;;;;;;;;;5047610;28;20021;-64
2023/03/16 12:08:46;;;;;;;7.47;1.77;;;;;;;;;;5049284;28;20533;-64
2023/03/16 12:11:19;;;;;;;7.75;1.42;;;;;;;;;;5032358;28;20047;-65
2023/03/16 12:13:47;;;;;;;7.10;1.05;;;;;;;;;;5034653;28;20472;-65
2023/03/16 12:16:12;;;;;;;4.15;1.17;;;;;;;;;;5035147;28;20121;-65
2023/03/16 12:18:37;;;;;;;2.40;1.20;;;;;;;;;;5035300;28;20116;-64
2023/03/16 12:21:11;;;;;;;2.97;1.40;;;;;;;;;;5031865;28;20350;-64
2023/03/16 12:24:02;;;;;;;3.50;1.40;;;;;;;;;;5026018;28;20286;-64
2023/03/16 12:26:31;;;;;;;3.00;1.10;;;;;;;;;;5028090;28;20099;-65
2023/03/16 12:28:58;;;;;;;3.97;1.38;;;;;;;;;;5046602;28;20025;-65
2023/03/16 12:31:42;;;;;;;3.30;1.27;;;;;;;;;;5024504;28;20104;-65
2023/03/16 12:34:27;;;;;;;3.40;1.52;;;;;;;;;;5043130;28;20056;-65
2023/03/16 12:37:13;;;;;;;3.17;1.40;;;;;;;;;;5030506;28;20036;-65
2023/03/16 12:39:44;;;;;;;2.72;1.38;;;;;;;;;;5044188;28;20045;-65
2023/03/16 12:42:19;;;;;;;4.20;1.73;;;;;;;;;;5020416;28;20437;-64
2023/03/16 12:45:05;;;;;;;7.15;1.83;;;;;;;;;;5034519;28;20033;-64
2023/03/16 12:47:41;;;;;;;5.55;1.48;;;;;;;;;;5022717;28;20506;-65
2023/03/16 12:50:11;;;;;;;5.05;1.52;;;;;;;;;;5046055;28;20033;-65
2023/03/16 12:52:47;;;;;;;2.90;1.48;;;;;;;;;;5028368;28;20024;-64
2023/03/16 12:55:16;;;;;;;6.45;1.80;;;;;;;;;;5023759;28;20032;-64
2023/03/16 12:57:42;;;;;;;2.33;1.20;;;;;;;;;;5033487;28;20130;-64
2023/03/16 13:00:09;;;;;;;3.28;1.63;;;;;;;;;;5030775;28;20032;-64
2023/03/16 13:02:36;;;;;;;3.15;1.55;;;;;;;;;;5027414;28;20032;-65
2023/03/16 13:05:06;;;;;;;2.72;1.45;;;;;;;;;;5027009;28;20083;-64
2023/03/16 13:07:32;;;;;;;4.35;1.38;;;;;;;;;;5044024;28;20440;-64
2023/03/16 13:09:59;;;;;;;3.38;1.27;;;;;;;;;;5019525;28;20028;-65
2023/03/16 13:12:26;;;;;;;3.22;1.45;;;;;;;;;;5007118;28;20017;-65
2023/03/16 13:14:55;;;;;;;3.80;1.58;;;;;;;;;;5009622;28;20447;-65
2023/03/16 13:17:31;;;;;;;3.78;1.55;;;;;;;;;;5007485;28;20021;-65
2023/03/16 13:20:18;;;;;;;3.65;1.60;;;;;;;;;;5005374;28;20035;-65
2023/03/16 13:22:49;;;;;;;3.95;1.67;;;;;;;;;;5003573;28;20123;-65
2023/03/16 13:25:17;;;;;;;4.63;1.20;;;;;;;;;;5035147;28;20998;-65
2023/03/16 13:27:46;;;;;;;4.60;1.52;;;;;;;;;;5008138;28;20132;-65
2023/03/16 13:30:31;;;;;;;4.38;1.95;;;;;;;;;;5004560;28;20033;-65
2023/03/16 13:33:05;;;;;;;5.65;1.70;;;;;;;;;;5002149;28;20063;-65
2023/03/16 13:35:31;;;;;;;7.88;1.80;;;;;;;;;;5012232;28;21003;-66
2023/03/16 13:38:04;;;;;;;11.80;1.67;;;;;;;;;;5007552;28;20124;-66
2023/03/16 13:40:29;;;;;;;2.77;1.60;;;;;;;;;;5006420;28;20024;-66
2023/03/16 13:42:56;;;;;;;4.43;1.50;;;;;;;;;;5006228;28;21193;-66
2023/03/16 13:45:23;;;;;;;3.97;1.60;;;;;;;;;;5003088;28;20095;-65
2023/03/16 13:47:49;;;;;;;3.55;1.48;;;;;;;;;;5006525;28;20068;-66
2023/03/16 13:50:15;;;;;;;6.18;1.60;;;;;;;;;;5009070;28;20822;-65
2023/03/16 13:52:42;;;;;;;5.13;1.73;;;;;;;;;;5003082;28;20029;-65
2023/03/16 13:55:21;;;;;;;5.57;1.98;;;;;;;;;;5001143;28;20047;-65
2023/03/16 13:57:47;;;;;;;8.00;1.85;;;;;;;;;;5003569;28;20128;-66
2023/03/16 14:00:14;;;;;;;3.75;1.33;;;;;;;;;;5012635;28;20032;-65
2023/03/16 14:02:44;;;;;;;3.70;1.58;;;;;;;;;;5012075;28;20021;-65
2023/03/16 14:05:10;;;;;;;5.93;1.70;;;;;;;;;;5002846;28;20028;-65
2023/03/16 14:07:37;;;;;;;6.75;1.27;;;;;;;;;;5007089;28;20040;-66
2023/03/16 14:10:04;;;;;;;5.05;1.60;;;;;;;;;;5010505;28;20037;-66
2023/03/16 14:12:29;;;;;;;5.82;2.00;;;;;;;;;;5002042;28;20033;-66
2023/03/16 14:14:54;;;;;;;6.33;2.17;;;;;;;;;;4997644;28;20025;-66
2023/03/16 14:17:21;;;;;;;2.83;1.42;;;;;;;;;;5029204;28;20947;-65
2023/03/16 14:19:50;;;;;;;3.78;1.73;;;;;;;;;;5049348;28;20029;-65
2023/03/16 14:22:22;;;;;;;5.85;1.75;;;;;;;;;;5013065;28;20024;-65
2023/03/16 14:24:52;;;;;;;4.00;1.85;;;;;;;;;;5006554;28;20035;-66
2023/03/16 14:27:20;;;;;;;9.57;1.88;;;;;;;;;;5023561;28;20040;-66
2023/03/16 14:29:51;;;;;;;5.15;1.67;;;;;;;;;;5010550;28;20029;-66
2023/03/16 14:32:26;;;;;;;6.82;1.42;;;;;;;;;;5004756;28;20276;-66
2023/03/16 14:34:51;;;;;;;2.83;1.35;;;;;;;;;;5011798;28;20821;-66
2023/03/16 14:37:18;;;;;;;3.70;1.40;;;;;;;;;;5011257;28;20029;-66
2023/03/16 14:39:43;;;;;;;9.45;1.40;;;;;;;;;;5010855;28;20021;-66
2023/03/16 14:42:20;;;;;;;4.32;1.38;;;;;;;;;;5008873;28;21098;-66
2023/03/16 14:44:45;;;;;;;6.43;1.33;;;;;;;;;;5009978;28;20080;-66
2023/03/16 14:47:16;;;;;;;6.30;1.52;;;;;;;;;;5005538;28;20056;-66